Time;durP1;ratioP1;P1;durP2;ratioP2;P2;SDS_P1;SDS_P2;PMS_P1;PMS_P2;Temp;Humidity;BMP_temperature;BMP_pressure;BME280_temperature;BME280_humidity;BME280_pressure;Samples;Min_cycle;Max_cycle;Signal;HPM_P1;HPM_P2
2021/06/14 00:01:20;;;;;;;12.13;3.80;;;;;;;;;;5110798;28;20094;-69
2021/06/14 00:03:48;;;;;;;10.50;3.77;;;;;;;;;;5111474;28;20074;-69
2021/06/14 00:06:13;;;;;;;11.07;3.73;;;;;;;;;;5115342;27;20027;-69
2021/06/14 00:08:41;;;;;;;11.07;3.97;;;;;;;;;;5115009;28;20027;-69
2021/06/14 00:11:07;;;;;;;8.20;3.43;;;;;;;;;;5112553;28;20062;-69
2021/06/14 00:13:32;;;;;;;10.97;3.90;;;;;;;;;;5106683;28;20434;-69
2021/06/14 00:15:58;;;;;;;13.27;3.93;;;;;;;;;;5105927;28;20171;-69
2021/06/14 00:18:23;;;;;;;12.00;3.50;;;;;;;;;;5113316;28;20023;-71
2021/06/14 00:20:59;;;;;;;11.27;4.27;;;;;;;;;;5104799;28;20032;-69
2021/06/14 00:23:27;;;;;;;8.93;3.50;;;;;;;;;;5106143;28;20063;-69
2021/06/14 00:25:52;;;;;;;13.53;4.47;;;;;;;;;;5110557;28;20107;-70
2021/06/14 00:28:18;;;;;;;9.73;3.40;;;;;;;;;;5108752;28;20142;-69
2021/06/14 00:30:45;;;;;;;10.90;3.43;;;;;;;;;;5106314;28;20060;-69
2021/06/14 00:33:10;;;;;;;11.50;3.57;;;;;;;;;;5111074;28;20133;-69
2021/06/14 00:35:36;;;;;;;9.90;4.13;;;;;;;;;;5109665;28;20367;-69
2021/06/14 00:38:01;;;;;;;16.03;4.23;;;;;;;;;;5106475;28;20034;-69
2021/06/14 00:40:27;;;;;;;8.53;3.43;;;;;;;;;;5105140;28;21509;-69
2021/06/14 00:42:52;;;;;;;11.43;3.73;;;;;;;;;;5108358;28;20441;-69
2021/06/14 00:45:21;;;;;;;10.10;3.53;;;;;;;;;;5105466;28;20026;-69
2021/06/14 00:47:46;;;;;;;10.10;3.67;;;;;;;;;;5102725;28;20099;-69
2021/06/14 00:50:12;;;;;;;8.63;3.37;;;;;;;;;;5104084;28;20444;-69
2021/06/14 00:52:38;;;;;;;9.77;3.20;;;;;;;;;;5103033;28;20020;-69
2021/06/14 00:55:04;;;;;;;9.73;3.43;;;;;;;;;;5109406;27;20544;-69
2021/06/14 00:57:30;;;;;;;12.63;3.57;;;;;;;;;;5105112;28;20531;-69
2021/06/14 00:59:55;;;;;;;8.07;3.70;;;;;;;;;;5108991;28;20110;-69
2021/06/14 01:02:20;;;;;;;8.60;3.10;;;;;;;;;;5109113;28;20043;-69
2021/06/14 01:04:46;;;;;;;13.00;3.60;;;;;;;;;;5102337;22;20083;-68
2021/06/14 01:07:11;;;;;;;10.67;3.53;;;;;;;;;;5070032;28;20530;-68
2021/06/14 01:09:37;;;;;;;8.83;3.60;;;;;;;;;;5065718;28;20025;-68
2021/06/14 01:12:05;;;;;;;9.33;3.30;;;;;;;;;;5067274;28;20082;-66
2021/06/14 01:14:38;;;;;;;9.80;3.43;;;;;;;;;;5064648;28;20051;-66
2021/06/14 01:17:25;;;;;;;12.00;3.30;;;;;;;;;;5069162;28;20434;-66
2021/06/14 01:20:10;;;;;;;9.03;3.50;;;;;;;;;;5070521;28;20464;-66
2021/06/14 01:22:54;;;;;;;12.23;3.70;;;;;;;;;;4988464;28;20043;-66
2021/06/14 01:25:22;;;;;;;7.53;3.33;;;;;;;;;;4989340;28;20088;-66
2021/06/14 01:27:53;;;;;;;10.37;3.67;;;;;;;;;;4988820;28;20098;-66
2021/06/14 01:30:22;;;;;;;9.13;3.67;;;;;;;;;;4989438;28;20022;-66
2021/06/14 01:32:48;;;;;;;10.20;3.67;;;;;;;;;;4986721;28;20050;-66
2021/06/14 01:35:14;;;;;;;10.20;3.50;;;;;;;;;;4989564;28;20430;-66
2021/06/14 01:37:42;;;;;;;8.50;3.43;;;;;;;;;;4986621;28;20049;-66
2021/06/14 01:40:08;;;;;;;12.13;4.10;;;;;;;;;;4989041;28;20033;-66
2021/06/14 01:42:34;;;;;;;8.43;3.67;;;;;;;;;;4988613;28;20033;-66
2021/06/14 01:45:00;;;;;;;10.83;3.73;;;;;;;;;;4988324;28;20129;-66
2021/06/14 01:47:26;;;;;;;13.63;3.93;;;;;;;;;;4988428;28;20459;-66
2021/06/14 01:49:51;;;;;;;11.87;4.17;;;;;;;;;;4988805;28;20026;-66
2021/06/14 01:52:17;;;;;;;11.23;3.90;;;;;;;;;;4988504;28;20030;-66
2021/06/14 01:54:43;;;;;;;11.33;4.00;;;;;;;;;;4988600;28;20057;-66
2021/06/14 01:57:08;;;;;;;12.07;4.50;;;;;;;;;;4994595;28;20084;-66
2021/06/14 01:59:36;;;;;;;10.40;4.03;;;;;;;;;;5064419;28;20072;-66
2021/06/14 02:02:04;;;;;;;14.17;4.07;;;;;;;;;;5065802;28;20033;-66
2021/06/14 02:04:31;;;;;;;10.73;4.07;;;;;;;;;;5069864;28;20052;-66
2021/06/14 02:06:56;;;;;;;11.87;4.00;;;;;;;;;;5065978;28;20021;-66
2021/06/14 02:09:22;;;;;;;13.07;3.63;;;;;;;;;;5072472;28;20024;-66
2021/06/14 02:11:53;;;;;;;12.20;4.13;;;;;;;;;;5078973;28;20507;-66
2021/06/14 02:14:20;;;;;;;15.70;4.80;;;;;;;;;;5075161;28;20418;-66
2021/06/14 02:16:46;;;;;;;15.73;4.30;;;;;;;;;;5071238;28;20035;-66
2021/06/14 02:19:12;;;;;;;10.73;4.40;;;;;;;;;;5073419;28;20024;-66
2021/06/14 02:21:38;;;;;;;13.30;4.27;;;;;;;;;;5070446;28;20585;-66
2021/06/14 02:24:03;;;;;;;16.77;4.03;;;;;;;;;;5073596;28;20070;-66
2021/06/14 02:26:29;;;;;;;12.37;4.77;;;;;;;;;;5071502;28;20117;-66
2021/06/14 02:28:54;;;;;;;15.07;3.63;;;;;;;;;;5072949;28;20380;-66
2021/06/14 02:31:19;;;;;;;15.80;3.97;;;;;;;;;;5069160;28;20027;-66
2021/06/14 02:33:45;;;;;;;7.77;3.47;;;;;;;;;;5072674;28;20027;-66
2021/06/14 02:36:10;;;;;;;14.53;3.80;;;;;;;;;;5069960;28;20042;-66
2021/06/14 02:38:36;;;;;;;11.53;4.50;;;;;;;;;;5071575;28;20038;-66
2021/06/14 02:41:02;;;;;;;10.60;4.23;;;;;;;;;;5074152;28;20058;-66
2021/06/14 02:43:27;;;;;;;14.87;4.57;;;;;;;;;;5067386;28;20020;-66
2021/06/14 02:45:52;;;;;;;11.93;3.73;;;;;;;;;;5072801;28;20032;-66
2021/06/14 02:48:18;;;;;;;12.43;3.73;;;;;;;;;;5065257;28;20367;-66
2021/06/14 02:50:44;;;;;;;11.57;4.13;;;;;;;;;;5071147;28;20115;-66
2021/06/14 02:53:11;;;;;;;12.60;3.77;;;;;;;;;;5066997;28;20030;-66
2021/06/14 02:55:41;;;;;;;11.17;4.50;;;;;;;;;;5070092;28;20096;-66
2021/06/14 02:58:07;;;;;;;12.73;4.07;;;;;;;;;;5061835;28;20107;-66
2021/06/14 03:00:33;;;;;;;11.60;3.93;;;;;;;;;;5071404;28;20024;-66
2021/06/14 03:02:59;;;;;;;13.80;4.47;;;;;;;;;;5069853;28;20032;-66
2021/06/14 03:05:25;;;;;;;15.07;4.07;;;;;;;;;;5078257;28;20127;-66
2021/06/14 03:07:51;;;;;;;13.37;5.17;;;;;;;;;;5080315;28;20138;-66
2021/06/14 03:10:16;;;;;;;13.93;4.50;;;;;;;;;;5085219;28;20119;-66
2021/06/14 03:12:42;;;;;;;12.90;4.23;;;;;;;;;;5076824;28;20027;-66
2021/06/14 03:15:07;;;;;;;15.83;4.13;;;;;;;;;;5078445;28;20024;-66
2021/06/14 03:17:34;;;;;;;13.97;4.07;;;;;;;;;;5076146;28;20103;-66
2021/06/14 03:20:00;;;;;;;11.30;4.10;;;;;;;;;;5082220;28;20105;-66
2021/06/14 03:22:26;;;;;;;13.73;5.00;;;;;;;;;;5081629;28;20045;-66
2021/06/14 03:24:52;;;;;;;12.60;3.93;;;;;;;;;;5082895;28;20027;-66
2021/06/14 03:27:17;;;;;;;11.10;4.03;;;;;;;;;;5080203;28;20376;-66
2021/06/14 03:29:44;;;;;;;16.13;4.73;;;;;;;;;;5083107;28;20024;-66
2021/06/14 03:32:09;;;;;;;10.87;4.23;;;;;;;;;;5088111;28;20020;-66
2021/06/14 03:34:36;;;;;;;18.20;4.10;;;;;;;;;;5083405;28;20018;-68
2021/06/14 03:37:01;;;;;;;12.53;4.27;;;;;;;;;;5075603;28;20028;-68
2021/06/14 03:39:27;;;;;;;11.93;4.17;;;;;;;;;;5085719;28;20027;-68
2021/06/14 03:41:53;;;;;;;14.90;4.20;;;;;;;;;;5076831;28;20111;-68
2021/06/14 03:44:19;;;;;;;14.20;4.30;;;;;;;;;;5084413;28;20024;-68
2021/06/14 03:46:45;;;;;;;17.57;4.47;;;;;;;;;;5079580;28;20024;-68
2021/06/14 03:49:10;;;;;;;13.97;3.90;;;;;;;;;;5084305;28;20468;-69
2021/06/14 03:51:35;;;;;;;11.40;3.87;;;;;;;;;;5077448;28;20028;-69
2021/06/14 03:54:01;;;;;;;11.00;3.77;;;;;;;;;;5095486;28;20016;-68
2021/06/14 03:56:32;;;;;;;11.50;4.30;;;;;;;;;;5078741;28;20025;-68
2021/06/14 03:58:57;;;;;;;10.13;4.57;;;;;;;;;;5084299;28;20034;-68
2021/06/14 04:01:23;;;;;;;12.10;4.20;;;;;;;;;;5076687;28;20106;-68
2021/06/14 04:06:43;;;;;;;10.67;3.37;;;;;;;;;;5056405;28;20128;-67
2021/06/14 04:09:09;;;;;;;14.73;4.47;;;;;;;;;;5087316;28;20048;-68
2021/06/14 04:11:34;;;;;;;13.40;3.70;;;;;;;;;;5076772;28;20436;-69
2021/06/14 04:13:59;;;;;;;9.80;3.47;;;;;;;;;;5077707;28;20028;-69
2021/06/14 04:16:25;;;;;;;13.93;3.70;;;;;;;;;;5079495;28;20028;-69
2021/06/14 04:18:50;;;;;;;12.37;3.37;;;;;;;;;;5083327;28;20051;-68
2021/06/14 04:21:16;;;;;;;9.73;3.23;;;;;;;;;;5081188;28;20420;-69
2021/06/14 04:23:41;;;;;;;11.23;3.83;;;;;;;;;;5086782;28;20507;-69
2021/06/14 04:26:07;;;;;;;8.03;3.43;;;;;;;;;;5086700;28;20020;-70
2021/06/14 04:28:33;;;;;;;15.60;3.77;;;;;;;;;;5086387;28;20028;-69
2021/06/14 04:30:58;;;;;;;12.87;3.50;;;;;;;;;;5082951;28;20024;-69
2021/06/14 04:33:23;;;;;;;10.77;3.70;;;;;;;;;;5076757;28;20150;-69
2021/06/14 04:35:49;;;;;;;10.23;3.63;;;;;;;;;;5080265;28;20035;-70
2021/06/14 04:38:14;;;;;;;8.40;3.30;;;;;;;;;;5073176;28;20020;-70
2021/06/14 04:40:39;;;;;;;9.80;3.37;;;;;;;;;;5088893;28;20408;-70
2021/06/14 04:43:05;;;;;;;12.27;3.30;;;;;;;;;;5075021;28;20029;-72
2021/06/14 04:45:30;;;;;;;7.40;2.87;;;;;;;;;;5080331;28;20353;-72
2021/06/14 04:47:55;;;;;;;8.33;3.27;;;;;;;;;;5079687;28;20031;-73
2021/06/14 04:50:21;;;;;;;11.50;3.27;;;;;;;;;;5078162;28;20020;-74
2021/06/14 04:52:46;;;;;;;10.37;3.73;;;;;;;;;;5079137;28;20024;-73
2021/06/14 04:55:12;;;;;;;11.50;3.30;;;;;;;;;;5089618;28;20024;-73
2021/06/14 04:57:37;;;;;;;8.37;3.07;;;;;;;;;;5075177;28;20025;-73
2021/06/14 05:00:05;;;;;;;7.87;3.10;;;;;;;;;;5080304;28;20082;-73
2021/06/14 05:02:30;;;;;;;9.03;3.40;;;;;;;;;;5076782;28;20063;-74
2021/06/14 05:04:56;;;;;;;9.65;3.20;;;;;;;;;;5083893;28;20080;-75
2021/06/14 05:07:21;;;;;;;9.00;2.88;;;;;;;;;;5080759;28;20020;-75
2021/06/14 05:09:47;;;;;;;6.35;2.97;;;;;;;;;;5082052;28;20103;-75
2021/06/14 05:12:12;;;;;;;11.35;3.22;;;;;;;;;;5079457;28;20051;-75
2021/06/14 05:14:37;;;;;;;7.78;3.05;;;;;;;;;;5078245;28;20055;-75
2021/06/14 05:17:03;;;;;;;8.70;3.03;;;;;;;;;;5079537;28;20028;-73
2021/06/14 05:19:28;;;;;;;7.47;3.15;;;;;;;;;;5083117;28;20040;-74
2021/06/14 05:21:54;;;;;;;9.20;3.05;;;;;;;;;;5073062;28;20028;-73
2021/06/14 05:24:20;;;;;;;6.93;2.80;;;;;;;;;;5086567;28;20062;-74
2021/06/14 05:26:45;;;;;;;6.60;2.78;;;;;;;;;;5079555;28;20204;-75
2021/06/14 05:29:10;;;;;;;7.88;2.83;;;;;;;;;;5072012;28;20124;-75
2021/06/14 05:31:36;;;;;;;8.23;3.25;;;;;;;;;;5079432;28;20559;-75
2021/06/14 05:34:01;;;;;;;7.65;2.85;;;;;;;;;;5079652;28;20052;-75
2021/06/14 05:36:26;;;;;;;6.80;2.50;;;;;;;;;;5076148;28;20141;-75
2021/06/14 05:38:52;;;;;;;7.97;3.08;;;;;;;;;;5071422;28;20082;-76
2021/06/14 05:41:17;;;;;;;7.28;3.10;;;;;;;;;;5081020;28;20111;-75
2021/06/14 05:43:42;;;;;;;7.72;3.38;;;;;;;;;;5072062;28;20032;-76
2021/06/14 05:46:08;;;;;;;8.50;3.10;;;;;;;;;;5084209;28;20039;-76
2021/06/14 05:48:33;;;;;;;7.97;2.88;;;;;;;;;;5080471;28;20032;-76
2021/06/14 05:50:58;;;;;;;7.72;3.20;;;;;;;;;;5080267;28;20055;-75
2021/06/14 05:53:24;;;;;;;8.48;3.22;;;;;;;;;;5085522;28;20040;-76
2021/06/14 05:55:49;;;;;;;6.63;2.78;;;;;;;;;;5081390;28;20438;-77
2021/06/14 05:58:15;;;;;;;9.50;3.20;;;;;;;;;;5075843;28;20028;-76
2021/06/14 06:00:41;;;;;;;9.32;3.30;;;;;;;;;;5087207;28;20064;-76
2021/06/14 06:03:06;;;;;;;7.03;2.85;;;;;;;;;;5071904;28;20028;-77
2021/06/14 06:05:32;;;;;;;7.07;3.15;;;;;;;;;;5072184;28;20041;-76
2021/06/14 06:07:57;;;;;;;9.65;2.97;;;;;;;;;;5069954;28;20016;-76
2021/06/14 06:10:22;;;;;;;7.18;3.20;;;;;;;;;;5072091;28;20104;-76
2021/06/14 06:12:48;;;;;;;10.23;2.90;;;;;;;;;;5075357;28;20498;-75
2021/06/14 06:15:15;;;;;;;6.45;2.47;;;;;;;;;;5087167;28;20032;-76
2021/06/14 06:17:40;;;;;;;6.65;2.65;;;;;;;;;;5087247;28;20391;-77
2021/06/14 06:20:10;;;;;;;9.95;2.78;;;;;;;;;;5092115;28;20321;-76
2021/06/14 06:22:35;;;;;;;7.50;3.05;;;;;;;;;;5088548;28;20035;-76
2021/06/14 06:25:03;;;;;;;7.40;2.22;;;;;;;;;;5092094;28;20020;-75
2021/06/14 06:27:28;;;;;;;5.63;2.50;;;;;;;;;;5089855;28;20024;-77
2021/06/14 06:29:54;;;;;;;7.82;2.60;;;;;;;;;;5092056;28;20031;-77
2021/06/14 06:32:19;;;;;;;7.78;2.53;;;;;;;;;;5090813;28;20018;-76
2021/06/14 06:34:44;;;;;;;6.97;2.30;;;;;;;;;;5091944;28;20055;-77
2021/06/14 06:37:10;;;;;;;8.48;2.65;;;;;;;;;;5076855;28;20441;-77
2021/06/14 06:39:35;;;;;;;6.68;2.33;;;;;;;;;;5075018;28;20099;-76
2021/06/14 06:42:01;;;;;;;5.88;2.30;;;;;;;;;;5087202;28;20020;-78
2021/06/14 06:44:26;;;;;;;6.10;2.55;;;;;;;;;;5083379;28;20104;-77
2021/06/14 06:46:52;;;;;;;6.95;2.08;;;;;;;;;;5085646;28;20111;-76
2021/06/14 06:49:17;;;;;;;7.18;1.98;;;;;;;;;;5086108;28;20027;-76
2021/06/14 06:51:42;;;;;;;6.93;2.05;;;;;;;;;;5079541;28;20021;-76
2021/06/14 06:54:11;;;;;;;5.70;2.17;;;;;;;;;;5085254;28;20032;-77
2021/06/14 06:56:56;;;;;;;9.55;2.20;;;;;;;;;;5079962;28;20021;-77
2021/06/14 06:59:22;;;;;;;7.63;2.47;;;;;;;;;;5088248;28;20113;-78
2021/06/14 07:01:47;;;;;;;8.63;2.45;;;;;;;;;;5085952;28;20254;-77
2021/06/14 07:04:13;;;;;;;8.20;1.90;;;;;;;;;;5088381;28;20036;-77
2021/06/14 07:06:38;;;;;;;7.70;2.15;;;;;;;;;;5084373;28;20025;-76
2021/06/14 07:09:04;;;;;;;5.82;2.03;;;;;;;;;;5074617;28;20424;-76
2021/06/14 07:11:30;;;;;;;5.68;2.35;;;;;;;;;;5060530;28;20528;-76
2021/06/14 07:13:55;;;;;;;4.10;1.90;;;;;;;;;;5076238;28;20096;-77
2021/06/14 07:16:21;;;;;;;5.47;2.00;;;;;;;;;;5062754;28;20016;-75
2021/06/14 07:18:47;;;;;;;5.78;2.00;;;;;;;;;;5078769;28;20020;-76
2021/06/14 07:21:12;;;;;;;5.30;2.00;;;;;;;;;;5077593;28;20024;-75
2021/06/14 07:23:38;;;;;;;6.50;2.00;;;;;;;;;;5083893;28;20031;-76
2021/06/14 07:26:03;;;;;;;6.10;2.05;;;;;;;;;;5077378;28;20107;-76
2021/06/14 07:28:29;;;;;;;8.13;2.33;;;;;;;;;;5077203;28;20016;-77
2021/06/14 07:30:54;;;;;;;6.70;2.13;;;;;;;;;;5076537;28;20016;-76
2021/06/14 07:33:19;;;;;;;5.57;1.92;;;;;;;;;;5072779;28;20027;-75
2021/06/14 07:35:44;;;;;;;6.70;2.13;;;;;;;;;;5076565;28;20038;-75
2021/06/14 07:38:11;;;;;;;5.85;1.85;;;;;;;;;;5086295;28;20039;-76
2021/06/14 07:40:37;;;;;;;6.00;1.92;;;;;;;;;;5090866;28;20108;-75
2021/06/14 07:43:02;;;;;;;5.20;1.80;;;;;;;;;;5086033;28;20103;-75
2021/06/14 07:45:28;;;;;;;5.80;2.22;;;;;;;;;;5090566;28;20050;-76
2021/06/14 07:47:53;;;;;;;6.50;1.80;;;;;;;;;;5088595;28;20085;-75
2021/06/14 07:50:19;;;;;;;4.72;1.58;;;;;;;;;;5086889;28;20400;-75
2021/06/14 07:52:44;;;;;;;7.22;2.50;;;;;;;;;;5082731;28;20403;-74
2021/06/14 07:55:11;;;;;;;7.55;1.80;;;;;;;;;;5087509;28;20303;-73
2021/06/14 07:57:36;;;;;;;6.70;1.60;;;;;;;;;;5069392;28;20028;-75
2021/06/14 08:00:03;;;;;;;5.57;1.88;;;;;;;;;;5089767;28;20099;-74
2021/06/14 08:02:28;;;;;;;4.50;1.52;;;;;;;;;;5079081;28;20025;-75
2021/06/14 08:04:56;;;;;;;7.82;2.20;;;;;;;;;;5090866;28;20097;-74
2021/06/14 08:07:22;;;;;;;4.57;1.52;;;;;;;;;;5086532;28;20020;-74
2021/06/14 08:09:53;;;;;;;5.80;1.95;;;;;;;;;;5082357;28;20065;-74
2021/06/14 08:12:18;;;;;;;;;;;;;;;;;;5085608;28;20121;-74
2021/06/14 08:14:44;;;;;;;5.88;1.52;;;;;;;;;;5073691;28;19943;-74
2021/06/14 08:17:09;;;;;;;6.78;2.10;;;;;;;;;;5073221;28;20032;-74
2021/06/14 08:19:44;;;;;;;5.47;1.70;;;;;;;;;;5073764;28;20021;-74
2021/06/14 08:22:28;;;;;;;5.88;1.70;;;;;;;;;;5080739;28;20025;-72
2021/06/14 08:27:48;;;;;;;3.72;1.52;;;;;;;;;;5024976;28;20037;-72
2021/06/14 08:30:16;;;;;;;6.22;1.63;;;;;;;;;;5031415;28;20389;-72
2021/06/14 08:32:41;;;;;;;7.15;1.58;;;;;;;;;;5026376;28;20026;-72
2021/06/14 08:35:07;;;;;;;4.63;1.77;;;;;;;;;;5031417;28;20025;-75
2021/06/14 08:37:34;;;;;;;6.38;1.70;;;;;;;;;;5027058;28;20203;-75
2021/06/14 08:39:59;;;;;;;5.13;1.40;;;;;;;;;;5031074;28;20405;-74
2021/06/14 08:42:24;;;;;;;3.42;1.30;;;;;;;;;;5025911;28;20108;-73
2021/06/14 08:44:50;;;;;;;3.35;1.30;;;;;;;;;;5028609;28;20474;-74
2021/06/14 08:47:16;;;;;;;5.05;1.42;;;;;;;;;;5028859;28;20026;-74
2021/06/14 08:49:41;;;;;;;4.03;1.60;;;;;;;;;;5030694;28;20024;-74
2021/06/14 08:52:07;;;;;;;4.47;1.40;;;;;;;;;;5028976;28;20021;-73
2021/06/14 08:54:32;;;;;;;3.72;1.40;;;;;;;;;;5031228;28;20057;-73
2021/06/14 08:56:58;;;;;;;3.97;1.30;;;;;;;;;;5012385;28;20124;-74
2021/06/14 08:59:23;;;;;;;5.63;1.33;;;;;;;;;;5023808;28;20045;-74
2021/06/14 09:01:49;;;;;;;6.45;1.73;;;;;;;;;;5025624;28;20468;-73
2021/06/14 09:04:14;;;;;;;4.35;1.40;;;;;;;;;;5056181;28;20056;-73
2021/06/14 09:06:39;;;;;;;5.82;1.33;;;;;;;;;;5089471;28;20020;-74
2021/06/14 09:09:07;;;;;;;3.28;1.10;;;;;;;;;;5073474;28;20017;-74
2021/06/14 09:11:33;;;;;;;4.15;1.35;;;;;;;;;;5090302;28;20028;-73
2021/06/14 09:14:01;;;;;;;7.05;1.70;;;;;;;;;;5087026;28;20026;-73
2021/06/14 09:16:31;;;;;;;4.55;1.38;;;;;;;;;;5082642;28;20039;-73
2021/06/14 09:18:57;;;;;;;3.58;1.35;;;;;;;;;;5087649;28;20363;-73
2021/06/14 09:21:30;;;;;;;4.93;1.42;;;;;;;;;;5079121;28;20040;-73
2021/06/14 09:24:07;;;;;;;4.13;1.20;;;;;;;;;;5088425;28;20456;-74
2021/06/14 09:26:43;;;;;;;4.03;1.48;;;;;;;;;;5090146;28;20077;-73
2021/06/14 09:29:15;;;;;;;4.75;1.38;;;;;;;;;;5091558;28;20038;-73
2021/06/14 09:31:51;;;;;;;3.55;1.50;;;;;;;;;;5088582;28;20473;-73
2021/06/14 09:34:18;;;;;;;5.05;1.52;;;;;;;;;;5067583;28;20422;-73
2021/06/14 09:36:56;;;;;;;3.70;1.38;;;;;;;;;;5089401;28;20028;-72
2021/06/14 09:39:22;;;;;;;5.00;1.80;;;;;;;;;;5093248;28;20395;-72
2021/06/14 09:41:51;;;;;;;4.43;1.27;;;;;;;;;;5086726;28;20060;-72
2021/06/14 09:44:30;;;;;;;3.17;1.17;;;;;;;;;;5086263;28;20375;-72
2021/06/14 09:47:00;;;;;;;5.45;1.42;;;;;;;;;;5090926;28;20024;-72
2021/06/14 09:49:25;;;;;;;5.25;1.38;;;;;;;;;;5076231;28;20032;-71
2021/06/14 09:51:51;;;;;;;2.83;1.10;;;;;;;;;;5073255;28;20029;-72
2021/06/14 09:54:23;;;;;;;6.32;1.70;;;;;;;;;;5084555;28;20020;-71
2021/06/14 09:56:51;;;;;;;3.40;1.33;;;;;;;;;;5075645;28;20059;-71
2021/06/14 09:59:23;;;;;;;7.18;1.33;;;;;;;;;;5085452;28;20031;-71
2021/06/14 10:01:48;;;;;;;5.10;1.30;;;;;;;;;;5086616;28;20039;-71
2021/06/14 10:04:14;;;;;;;5.72;1.23;;;;;;;;;;5081461;28;20232;-71
2021/06/14 10:06:42;;;;;;;3.03;1.13;;;;;;;;;;5072988;28;20372;-71
2021/06/14 10:09:14;;;;;;;2.63;1.10;;;;;;;;;;5084009;28;20036;-71
2021/06/14 10:11:41;;;;;;;3.88;1.33;;;;;;;;;;5073099;28;20028;-70
2021/06/14 10:14:08;;;;;;;4.13;1.40;;;;;;;;;;5072262;28;20499;-70
2021/06/14 10:16:36;;;;;;;4.90;1.10;;;;;;;;;;5071911;28;20493;-70
2021/06/14 10:19:01;;;;;;;4.00;1.55;;;;;;;;;;5082412;28;20038;-70
2021/06/14 10:21:29;;;;;;;4.25;1.42;;;;;;;;;;5073050;28;20020;-70
2021/06/14 10:23:56;;;;;;;4.50;0.98;;;;;;;;;;5074073;28;20032;-70
2021/06/14 10:26:22;;;;;;;5.40;1.30;;;;;;;;;;5078340;28;20418;-70
2021/06/14 10:28:48;;;;;;;3.35;1.08;;;;;;;;;;5084007;28;20016;-70
2021/06/14 10:31:13;;;;;;;6.07;1.40;;;;;;;;;;5072385;28;20043;-70
2021/06/14 10:33:40;;;;;;;5.18;1.38;;;;;;;;;;5071341;28;20054;-70
2021/06/14 10:36:06;;;;;;;6.30;1.20;;;;;;;;;;5071105;28;20036;-70
2021/06/14 10:38:33;;;;;;;3.88;1.20;;;;;;;;;;5070830;28;20024;-70
2021/06/14 10:40:59;;;;;;;2.75;0.98;;;;;;;;;;5073010;28;20528;-70
2021/06/14 10:43:26;;;;;;;3.10;1.15;;;;;;;;;;5075894;28;20036;-70
2021/06/14 10:45:52;;;;;;;4.80;1.38;;;;;;;;;;5073054;28;20016;-70
2021/06/14 10:48:22;;;;;;;5.13;1.20;;;;;;;;;;5078009;28;20031;-70
2021/06/14 10:50:48;;;;;;;3.72;1.10;;;;;;;;;;5074029;28;20027;-70
2021/06/14 10:53:21;;;;;;;3.20;1.10;;;;;;;;;;5074712;28;20032;-70
2021/06/14 10:55:49;;;;;;;4.63;1.40;;;;;;;;;;5084395;28;20454;-70
2021/06/14 10:58:15;;;;;;;4.70;1.40;;;;;;;;;;5076617;28;20028;-70
2021/06/14 11:00:40;;;;;;;5.20;1.50;;;;;;;;;;5058271;28;20476;-70
2021/06/14 11:03:10;;;;;;;3.65;1.40;;;;;;;;;;5069477;28;20419;-70
2021/06/14 11:05:48;;;;;;;3.20;1.30;;;;;;;;;;5065475;28;20087;-69
2021/06/14 11:08:18;;;;;;;5.72;1.30;;;;;;;;;;5087091;28;20415;-70
2021/06/14 11:10:44;;;;;;;5.97;1.35;;;;;;;;;;5081670;28;20051;-70
2021/06/14 11:13:10;;;;;;;5.18;1.50;;;;;;;;;;5078472;28;20024;-70
2021/06/14 11:15:36;;;;;;;6.55;1.60;;;;;;;;;;5091053;28;20030;-69
2021/06/14 11:18:05;;;;;;;3.70;1.40;;;;;;;;;;5079203;28;20102;-70
2021/06/14 11:20:32;;;;;;;3.20;1.02;;;;;;;;;;5091501;28;20529;-69
2021/06/14 11:22:57;;;;;;;3.53;1.30;;;;;;;;;;5080192;28;20084;-69
2021/06/14 11:25:30;;;;;;;3.40;1.20;;;;;;;;;;5090895;28;20028;-69
2021/06/14 11:28:01;;;;;;;3.22;1.10;;;;;;;;;;5079044;28;20464;-69
2021/06/14 11:30:36;;;;;;;14.30;1.73;;;;;;;;;;5078862;28;20020;-69
2021/06/14 11:33:02;;;;;;;3.92;1.30;;;;;;;;;;5073898;28;20054;-69
2021/06/14 11:35:28;;;;;;;4.18;1.50;;;;;;;;;;5090536;28;20035;-69
2021/06/14 11:37:54;;;;;;;4.35;1.27;;;;;;;;;;5084115;28;20377;-69
2021/06/14 11:40:28;;;;;;;4.82;1.42;;;;;;;;;;5080363;28;20074;-69
2021/06/14 11:42:56;;;;;;;3.08;1.10;;;;;;;;;;5086742;28;20028;-69
2021/06/14 11:45:39;;;;;;;5.05;1.20;;;;;;;;;;5078958;28;20028;-69
2021/06/14 11:48:16;;;;;;;4.95;1.20;;;;;;;;;;5072212;28;20428;-69
2021/06/14 11:50:41;;;;;;;4.85;1.40;;;;;;;;;;5075067;28;20021;-69
2021/06/14 11:53:10;;;;;;;3.80;1.27;;;;;;;;;;5084173;28;20023;-69
2021/06/14 11:55:38;;;;;;;3.55;1.10;;;;;;;;;;5080995;28;20020;-69
2021/06/14 11:58:04;;;;;;;4.88;1.38;;;;;;;;;;5087564;28;20549;-69
2021/06/14 12:00:32;;;;;;;3.70;1.15;;;;;;;;;;5092345;28;20070;-68
2021/06/14 12:02:57;;;;;;;3.53;1.10;;;;;;;;;;5081304;28;20481;-69
2021/06/14 12:05:33;;;;;;;3.17;1.20;;;;;;;;;;5073686;28;20052;-69
2021/06/14 12:08:02;;;;;;;5.50;1.20;;;;;;;;;;5077851;28;20099;-69
2021/06/14 12:10:28;;;;;;;3.28;0.98;;;;;;;;;;5074298;28;20035;-69
2021/06/14 12:13:12;;;;;;;6.15;1.52;;;;;;;;;;5069587;28;20029;-69
2021/06/14 12:15:38;;;;;;;3.25;1.27;;;;;;;;;;5073158;28;20027;-69
2021/06/14 12:18:04;;;;;;;2.85;1.20;;;;;;;;;;5073023;28;20523;-68
2021/06/14 12:20:40;;;;;;;3.30;1.40;;;;;;;;;;5074056;28;20051;-68
2021/06/14 12:23:10;;;;;;;3.92;1.33;;;;;;;;;;5073315;28;20031;-68
2021/06/14 12:25:40;;;;;;;3.83;1.13;;;;;;;;;;5073854;28;20043;-68
2021/06/14 12:28:07;;;;;;;4.30;1.48;;;;;;;;;;5075644;28;20051;-69
2021/06/14 12:30:32;;;;;;;4.00;1.30;;;;;;;;;;5080725;28;20461;-69
2021/06/14 12:32:58;;;;;;;2.70;1.00;;;;;;;;;;5073507;28;20100;-69
2021/06/14 12:35:23;;;;;;;3.45;1.20;;;;;;;;;;5074042;28;20086;-69
2021/06/14 12:37:50;;;;;;;4.47;1.33;;;;;;;;;;5073260;28;20024;-69
2021/06/14 12:40:25;;;;;;;4.13;1.30;;;;;;;;;;5074376;28;20017;-69
2021/06/14 12:42:55;;;;;;;5.10;1.60;;;;;;;;;;5068041;28;20468;-69
2021/06/14 12:45:20;;;;;;;5.88;1.30;;;;;;;;;;5074180;28;20039;-68
2021/06/14 12:47:47;;;;;;;3.72;1.27;;;;;;;;;;5068665;28;20016;-68
2021/06/14 12:50:19;;;;;;;3.58;1.20;;;;;;;;;;5073437;28;20023;-68
2021/06/14 12:52:44;;;;;;;3.53;1.17;;;;;;;;;;5069152;28;20028;-68
2021/06/14 12:55:20;;;;;;;2.55;1.10;;;;;;;;;;5073855;28;20035;-68
2021/06/14 12:57:45;;;;;;;6.85;1.33;;;;;;;;;;5070507;28;20021;-68
2021/06/14 13:00:18;;;;;;;3.83;1.23;;;;;;;;;;5073389;28;20024;-68
2021/06/14 13:02:48;;;;;;;5.53;1.38;;;;;;;;;;5071503;28;20028;-68
2021/06/14 13:05:15;;;;;;;6.30;1.70;;;;;;;;;;5089735;28;20101;-68
2021/06/14 13:07:50;;;;;;;4.50;1.20;;;;;;;;;;5080584;28;20016;-68
2021/06/14 13:10:16;;;;;;;3.10;1.10;;;;;;;;;;5080036;28;20472;-69
2021/06/14 13:12:41;;;;;;;3.15;1.17;;;;;;;;;;5081147;28;20031;-69
2021/06/14 13:15:08;;;;;;;5.15;1.55;;;;;;;;;;5092551;28;20043;-67
2021/06/14 13:17:33;;;;;;;4.38;1.40;;;;;;;;;;5081074;28;20029;-67
2021/06/14 13:19:59;;;;;;;6.32;1.17;;;;;;;;;;5078710;28;20388;-67
2021/06/14 13:22:32;;;;;;;4.57;1.23;;;;;;;;;;5083190;28;20097;-67
2021/06/14 13:25:03;;;;;;;5.38;1.42;;;;;;;;;;5066929;28;20051;-67
2021/06/14 13:27:28;;;;;;;4.30;1.48;;;;;;;;;;5083314;28;20411;-67
2021/06/14 13:29:56;;;;;;;4.20;1.33;;;;;;;;;;5093213;28;20024;-67
2021/06/14 13:32:25;;;;;;;2.67;1.30;;;;;;;;;;5078676;28;20031;-67
2021/06/14 13:34:58;;;;;;;6.25;1.25;;;;;;;;;;5082910;28;20028;-67
2021/06/14 13:37:23;;;;;;;5.22;1.40;;;;;;;;;;5081748;28;20528;-67
2021/06/14 13:39:49;;;;;;;4.30;1.23;;;;;;;;;;5092662;28;20054;-67
2021/06/14 13:42:15;;;;;;;4.85;1.30;;;;;;;;;;5082904;28;20104;-66
2021/06/14 13:44:53;;;;;;;3.58;1.20;;;;;;;;;;5092901;28;20466;-66
2021/06/14 13:47:22;;;;;;;3.65;1.17;;;;;;;;;;5086338;28;20047;-66
2021/06/14 13:49:48;;;;;;;3.65;1.50;;;;;;;;;;5092112;28;20024;-66
2021/06/14 13:52:18;;;;;;;4.65;1.60;;;;;;;;;;5087035;28;20028;-67
2021/06/14 13:54:44;;;;;;;4.53;1.40;;;;;;;;;;5092655;28;20133;-66
2021/06/14 13:57:11;;;;;;;6.25;1.60;;;;;;;;;;5085756;28;20028;-66
2021/06/14 13:59:37;;;;;;;9.77;1.80;;;;;;;;;;5088297;28;20020;-67
2021/06/14 14:02:04;;;;;;;3.20;1.10;;;;;;;;;;5086218;28;20380;-66
2021/06/14 14:04:30;;;;;;;3.63;1.15;;;;;;;;;;5090842;28;20055;-66
2021/06/14 14:06:56;;;;;;;2.85;1.20;;;;;;;;;;5075738;28;20460;-66
2021/06/14 14:09:22;;;;;;;3.80;1.27;;;;;;;;;;5075561;28;20016;-66
2021/06/14 14:11:48;;;;;;;5.22;1.42;;;;;;;;;;5086432;28;20077;-66
2021/06/14 14:14:15;;;;;;;5.18;1.20;;;;;;;;;;5084935;28;20040;-67
2021/06/14 14:16:41;;;;;;;5.88;1.27;;;;;;;;;;5088308;28;20025;-66
2021/06/14 14:19:07;;;;;;;3.38;1.20;;;;;;;;;;5084900;28;20146;-66
2021/06/14 14:21:33;;;;;;;3.42;1.35;;;;;;;;;;5089041;28;20028;-66
2021/06/14 14:24:02;;;;;;;4.40;1.50;;;;;;;;;;5085333;28;20031;-66
2021/06/14 14:26:28;;;;;;;3.35;1.42;;;;;;;;;;5089544;28;20095;-66
2021/06/14 14:28:53;;;;;;;5.82;1.45;;;;;;;;;;5072300;28;20171;-67
2021/06/14 14:31:18;;;;;;;3.10;1.20;;;;;;;;;;5080445;28;20016;-67
2021/06/14 14:33:45;;;;;;;4.85;1.30;;;;;;;;;;5074038;28;20055;-67
2021/06/14 14:36:16;;;;;;;4.25;1.30;;;;;;;;;;5072056;28;20063;-66
2021/06/14 14:38:46;;;;;;;2.67;1.25;;;;;;;;;;5066336;28;20451;-67
2021/06/14 14:41:16;;;;;;;3.60;1.45;;;;;;;;;;5088868;28;20063;-66
2021/06/14 14:43:51;;;;;;;2.72;1.20;;;;;;;;;;5075726;28;20047;-66
2021/06/14 14:46:21;;;;;;;6.18;1.30;;;;;;;;;;5091152;28;20450;-66